sensor_id;sensor_type;location;lat;lon;timestamp;temperature;humidity
27647;DHT22;42229;51.230;6.240;2022-08-19T00:00:29;19.80;90.90
27647;DHT22;42229;51.230;6.240;2022-08-19T00:02:56;19.80;91.10
27647;DHT22;42229;51.230;6.240;2022-08-19T00:05:22;19.80;91.20
27647;DHT22;42229;51.230;6.240;2022-08-19T00:07:49;19.70;91.70
27647;DHT22;42229;51.230;6.240;2022-08-19T00:10:16;19.70;91.90
27647;DHT22;42229;51.230;6.240;2022-08-19T00:12:42;19.70;91.50
27647;DHT22;42229;51.230;6.240;2022-08-19T00:15:10;19.60;91.50
27647;DHT22;42229;51.230;6.240;2022-08-19T00:17:38;19.60;93.00
27647;DHT22;42229;51.230;6.240;2022-08-19T00:20:06;19.60;92.90
27647;DHT22;42229;51.230;6.240;2022-08-19T00:22:33;19.50;92.10
27647;DHT22;42229;51.230;6.240;2022-08-19T00:24:59;19.50;91.80
27647;DHT22;42229;51.230;6.240;2022-08-19T00:27:25;19.50;91.70
27647;DHT22;42229;51.230;6.240;2022-08-19T00:29:52;19.50;92.20
27647;DHT22;42229;51.230;6.240;2022-08-19T00:32:18;19.40;92.40
27647;DHT22;42229;51.230;6.240;2022-08-19T00:34:44;19.50;92.60
27647;DHT22;42229;51.230;6.240;2022-08-19T00:37:10;19.50;92.40
27647;DHT22;42229;51.230;6.240;2022-08-19T00:39:37;19.40;92.10
27647;DHT22;42229;51.230;6.240;2022-08-19T00:42:03;19.40;92.00
27647;DHT22;42229;51.230;6.240;2022-08-19T00:44:32;19.40;92.00
27647;DHT22;42229;51.230;6.240;2022-08-19T00:46:58;19.30;92.90
27647;DHT22;42229;51.230;6.240;2022-08-19T00:51:55;19.30;94.40
27647;DHT22;42229;51.230;6.240;2022-08-19T00:54:28;19.30;93.60
27647;DHT22;42229;51.230;6.240;2022-08-19T00:56:57;19.20;93.40
27647;DHT22;42229;51.230;6.240;2022-08-19T00:59:24;19.20;94.40
27647;DHT22;42229;51.230;6.240;2022-08-19T01:01:51;19.20;93.40
27647;DHT22;42229;51.230;6.240;2022-08-19T01:04:18;19.10;94.00
27647;DHT22;42229;51.230;6.240;2022-08-19T01:06:44;19.00;94.10
27647;DHT22;42229;51.230;6.240;2022-08-19T01:09:10;19.10;93.70
27647;DHT22;42229;51.230;6.240;2022-08-19T01:11:38;19.00;93.40
27647;DHT22;42229;51.230;6.240;2022-08-19T01:14:06;18.90;93.20
27647;DHT22;42229;51.230;6.240;2022-08-19T01:16:33;18.90;93.10
27647;DHT22;42229;51.230;6.240;2022-08-19T01:19:00;18.90;93.90
27647;DHT22;42229;51.230;6.240;2022-08-19T01:24:03;18.80;94.20
27647;DHT22;42229;51.230;6.240;2022-08-19T01:26:30;18.80;94.10
27647;DHT22;42229;51.230;6.240;2022-08-19T01:28:57;18.80;93.80
27647;DHT22;42229;51.230;6.240;2022-08-19T01:31:25;18.70;93.80
27647;DHT22;42229;51.230;6.240;2022-08-19T01:33:54;18.70;94.00
27647;DHT22;42229;51.230;6.240;2022-08-19T01:36:23;18.70;94.20
27647;DHT22;42229;51.230;6.240;2022-08-19T01:38:55;18.70;94.90
27647;DHT22;42229;51.230;6.240;2022-08-19T01:41:22;18.60;95.20
27647;DHT22;42229;51.230;6.240;2022-08-19T01:43:49;18.60;95.00
27647;DHT22;42229;51.230;6.240;2022-08-19T01:46:17;18.60;95.80
27647;DHT22;42229;51.230;6.240;2022-08-19T01:48:43;18.60;95.80
27647;DHT22;42229;51.230;6.240;2022-08-19T01:51:10;18.60;95.40
27647;DHT22;42229;51.230;6.240;2022-08-19T01:53:37;18.50;95.00
27647;DHT22;42229;51.230;6.240;2022-08-19T01:56:04;18.50;95.10
27647;DHT22;42229;51.230;6.240;2022-08-19T01:58:35;18.50;94.70
27647;DHT22;42229;51.230;6.240;2022-08-19T02:01:05;18.50;94.50
27647;DHT22;42229;51.230;6.240;2022-08-19T02:03:32;18.50;94.40
27647;DHT22;42229;51.230;6.240;2022-08-19T02:06:01;18.40;94.50
27647;DHT22;42229;51.230;6.240;2022-08-19T02:08:34;18.40;95.80
27647;DHT22;42229;51.230;6.240;2022-08-19T02:11:03;18.40;96.10
27647;DHT22;42229;51.230;6.240;2022-08-19T02:13:29;18.40;98.20
27647;DHT22;42229;51.230;6.240;2022-08-19T02:15:55;18.40;98.50
27647;DHT22;42229;51.230;6.240;2022-08-19T02:18:22;18.30;99.60
27647;DHT22;42229;51.230;6.240;2022-08-19T02:20:48;18.40;99.50
27647;DHT22;42229;51.230;6.240;2022-08-19T02:23:15;18.40;98.30
27647;DHT22;42229;51.230;6.240;2022-08-19T02:25:44;18.30;97.70
27647;DHT22;42229;51.230;6.240;2022-08-19T02:28:11;18.30;97.00
27647;DHT22;42229;51.230;6.240;2022-08-19T02:30:38;18.30;96.90
27647;DHT22;42229;51.230;6.240;2022-08-19T02:33:04;18.30;96.90
27647;DHT22;42229;51.230;6.240;2022-08-19T02:35:31;18.30;97.60
27647;DHT22;42229;51.230;6.240;2022-08-19T02:37:57;18.30;98.10
27647;DHT22;42229;51.230;6.240;2022-08-19T02:40:48;18.30;99.00
27647;DHT22;42229;51.230;6.240;2022-08-19T02:43:16;18.30;99.90
27647;DHT22;42229;51.230;6.240;2022-08-19T02:45:42;18.30;98.80
27647;DHT22;42229;51.230;6.240;2022-08-19T02:48:08;18.30;99.50
27647;DHT22;42229;51.230;6.240;2022-08-19T02:50:38;18.20;99.90
27647;DHT22;42229;51.230;6.240;2022-08-19T02:53:05;18.20;99.90
27647;DHT22;42229;51.230;6.240;2022-08-19T02:55:32;18.20;99.10
27647;DHT22;42229;51.230;6.240;2022-08-19T02:57:59;18.10;98.60
27647;DHT22;42229;51.230;6.240;2022-08-19T03:00:26;18.10;97.90
27647;DHT22;42229;51.230;6.240;2022-08-19T03:02:53;18.10;97.60
27647;DHT22;42229;51.230;6.240;2022-08-19T03:05:19;18.10;97.80
27647;DHT22;42229;51.230;6.240;2022-08-19T03:07:45;18.10;97.70
27647;DHT22;42229;51.230;6.240;2022-08-19T03:10:12;18.10;99.00
27647;DHT22;42229;51.230;6.240;2022-08-19T03:12:38;18.00;98.40
27647;DHT22;42229;51.230;6.240;2022-08-19T03:15:05;18.00;99.40
27647;DHT22;42229;51.230;6.240;2022-08-19T03:17:33;18.10;99.90
27647;DHT22;42229;51.230;6.240;2022-08-19T03:20:00;18.10;99.90
27647;DHT22;42229;51.230;6.240;2022-08-19T03:22:26;18.10;99.90
27647;DHT22;42229;51.230;6.240;2022-08-19T03:24:53;18.10;99.90
27647;DHT22;42229;51.230;6.240;2022-08-19T03:27:19;18.20;99.90
27647;DHT22;42229;51.230;6.240;2022-08-19T03:29:45;18.10;99.90
27647;DHT22;42229;51.230;6.240;2022-08-19T03:32:14;18.20;99.90
27647;DHT22;42229;51.230;6.240;2022-08-19T03:34:41;18.20;99.90
27647;DHT22;42229;51.230;6.240;2022-08-19T03:37:08;18.30;99.90
27647;DHT22;42229;51.230;6.240;2022-08-19T03:39:38;18.30;99.90
27647;DHT22;42229;51.230;6.240;2022-08-19T03:42:05;18.30;99.90
27647;DHT22;42229;51.230;6.240;2022-08-19T03:44:31;18.30;99.90
27647;DHT22;42229;51.230;6.240;2022-08-19T03:46:58;18.30;99.90
27647;DHT22;42229;51.230;6.240;2022-08-19T03:49:26;18.30;99.90
27647;DHT22;42229;51.230;6.240;2022-08-19T03:51:56;18.30;99.90
27647;DHT22;42229;51.230;6.240;2022-08-19T03:54:24;18.30;99.90
27647;DHT22;42229;51.230;6.240;2022-08-19T03:56:51;18.40;99.90
27647;DHT22;42229;51.230;6.240;2022-08-19T03:59:20;18.40;99.90
27647;DHT22;42229;51.230;6.240;2022-08-19T04:01:58;18.40;99.90
27647;DHT22;42229;51.230;6.240;2022-08-19T04:04:26;18.40;99.90
27647;DHT22;42229;51.230;6.240;2022-08-19T04:06:53;18.40;99.90
27647;DHT22;42229;51.230;6.240;2022-08-19T04:09:19;18.40;99.90
27647;DHT22;42229;51.230;6.240;2022-08-19T04:11:47;18.50;99.90
27647;DHT22;42229;51.230;6.240;2022-08-19T04:14:17;18.50;99.90
27647;DHT22;42229;51.230;6.240;2022-08-19T04:16:45;18.50;99.90
27647;DHT22;42229;51.230;6.240;2022-08-19T04:19:12;18.50;99.90
27647;DHT22;42229;51.230;6.240;2022-08-19T04:21:39;18.50;99.90
27647;DHT22;42229;51.230;6.240;2022-08-19T04:24:05;18.60;99.90
27647;DHT22;42229;51.230;6.240;2022-08-19T04:26:33;18.60;99.90
27647;DHT22;42229;51.230;6.240;2022-08-19T04:29:01;18.60;99.90
27647;DHT22;42229;51.230;6.240;2022-08-19T04:31:31;18.60;99.90
27647;DHT22;42229;51.230;6.240;2022-08-19T04:34:02;18.60;99.90
27647;DHT22;42229;51.230;6.240;2022-08-19T04:36:32;18.60;99.90
27647;DHT22;42229;51.230;6.240;2022-08-19T04:39:01;18.60;99.90
27647;DHT22;42229;51.230;6.240;2022-08-19T04:41:29;18.60;99.90
27647;DHT22;42229;51.230;6.240;2022-08-19T04:44:14;18.70;99.90
27647;DHT22;42229;51.230;6.240;2022-08-19T04:46:44;18.70;99.90
27647;DHT22;42229;51.230;6.240;2022-08-19T04:49:11;18.70;99.90
27647;DHT22;42229;51.230;6.240;2022-08-19T04:51:40;18.70;99.90
27647;DHT22;42229;51.230;6.240;2022-08-19T04:54:08;18.70;99.90
27647;DHT22;42229;51.230;6.240;2022-08-19T04:56:34;18.70;99.90
27647;DHT22;42229;51.230;6.240;2022-08-19T04:59:00;18.80;99.90
27647;DHT22;42229;51.230;6.240;2022-08-19T05:01:31;18.80;99.90
27647;DHT22;42229;51.230;6.240;2022-08-19T05:03:59;18.80;99.90
27647;DHT22;42229;51.230;6.240;2022-08-19T05:06:26;18.80;99.90
27647;DHT22;42229;51.230;6.240;2022-08-19T05:08:54;18.80;99.90
27647;DHT22;42229;51.230;6.240;2022-08-19T05:11:24;18.80;99.90
27647;DHT22;42229;51.230;6.240;2022-08-19T05:13:54;18.90;99.90
27647;DHT22;42229;51.230;6.240;2022-08-19T05:16:21;18.90;99.90
27647;DHT22;42229;51.230;6.240;2022-08-19T05:18:49;18.90;99.90
27647;DHT22;42229;51.230;6.240;2022-08-19T05:21:34;18.90;99.90
27647;DHT22;42229;51.230;6.240;2022-08-19T05:24:20;18.90;99.90
27647;DHT22;42229;51.230;6.240;2022-08-19T05:26:48;19.00;99.90
27647;DHT22;42229;51.230;6.240;2022-08-19T05:29:17;19.00;99.90
27647;DHT22;42229;51.230;6.240;2022-08-19T05:31:45;19.00;99.90
27647;DHT22;42229;51.230;6.240;2022-08-19T05:34:11;19.00;99.90
27647;DHT22;42229;51.230;6.240;2022-08-19T05:36:40;19.00;99.90
27647;DHT22;42229;51.230;6.240;2022-08-19T05:39:07;19.10;99.90
27647;DHT22;42229;51.230;6.240;2022-08-19T05:41:34;19.10;99.90
27647;DHT22;42229;51.230;6.240;2022-08-19T05:44:01;19.10;99.90
27647;DHT22;42229;51.230;6.240;2022-08-19T05:46:31;19.10;99.90
27647;DHT22;42229;51.230;6.240;2022-08-19T05:48:58;19.10;99.90
27647;DHT22;42229;51.230;6.240;2022-08-19T05:51:24;19.10;99.90
27647;DHT22;42229;51.230;6.240;2022-08-19T05:53:51;19.20;99.90
27647;DHT22;42229;51.230;6.240;2022-08-19T05:56:17;19.20;99.90
27647;DHT22;42229;51.230;6.240;2022-08-19T05:58:44;19.20;99.90
27647;DHT22;42229;51.230;6.240;2022-08-19T06:01:12;19.20;99.90
27647;DHT22;42229;51.230;6.240;2022-08-19T06:03:40;19.20;99.90
27647;DHT22;42229;51.230;6.240;2022-08-19T06:06:07;19.30;99.90
27647;DHT22;42229;51.230;6.240;2022-08-19T06:08:35;19.30;99.90
27647;DHT22;42229;51.230;6.240;2022-08-19T06:11:16;19.30;99.90
27647;DHT22;42229;51.230;6.240;2022-08-19T06:13:51;19.40;99.90
27647;DHT22;42229;51.230;6.240;2022-08-19T06:16:21;19.40;99.90
27647;DHT22;42229;51.230;6.240;2022-08-19T06:18:52;19.40;99.90
27647;DHT22;42229;51.230;6.240;2022-08-19T06:21:22;19.50;99.90
27647;DHT22;42229;51.230;6.240;2022-08-19T06:23:50;19.50;99.90
27647;DHT22;42229;51.230;6.240;2022-08-19T06:26:18;19.50;99.90
27647;DHT22;42229;51.230;6.240;2022-08-19T06:28:45;19.60;99.90
27647;DHT22;42229;51.230;6.240;2022-08-19T06:31:16;19.60;99.90
27647;DHT22;42229;51.230;6.240;2022-08-19T06:33:46;19.70;99.90
27647;DHT22;42229;51.230;6.240;2022-08-19T06:36:19;19.70;99.90
27647;DHT22;42229;51.230;6.240;2022-08-19T06:38:56;19.80;99.90
27647;DHT22;42229;51.230;6.240;2022-08-19T06:41:24;19.90;99.90
27647;DHT22;42229;51.230;6.240;2022-08-19T06:43:51;19.90;99.90
27647;DHT22;42229;51.230;6.240;2022-08-19T06:46:18;20.00;99.90
27647;DHT22;42229;51.230;6.240;2022-08-19T06:48:46;20.00;99.90
27647;DHT22;42229;51.230;6.240;2022-08-19T06:51:13;20.10;99.90
27647;DHT22;42229;51.230;6.240;2022-08-19T06:53:42;20.20;99.90
27647;DHT22;42229;51.230;6.240;2022-08-19T06:56:13;20.20;99.90
27647;DHT22;42229;51.230;6.240;2022-08-19T06:58:41;20.20;99.90
27647;DHT22;42229;51.230;6.240;2022-08-19T07:01:07;20.30;99.90
27647;DHT22;42229;51.230;6.240;2022-08-19T07:03:34;20.40;99.90
27647;DHT22;42229;51.230;6.240;2022-08-19T07:06:05;20.40;99.90
27647;DHT22;42229;51.230;6.240;2022-08-19T07:08:32;20.40;99.90
27647;DHT22;42229;51.230;6.240;2022-08-19T07:10:59;20.50;99.90
27647;DHT22;42229;51.230;6.240;2022-08-19T07:13:26;20.50;99.90
27647;DHT22;42229;51.230;6.240;2022-08-19T07:15:52;20.60;99.90
27647;DHT22;42229;51.230;6.240;2022-08-19T07:18:19;20.60;99.90
27647;DHT22;42229;51.230;6.240;2022-08-19T07:20:46;20.70;99.90
27647;DHT22;42229;51.230;6.240;2022-08-19T07:23:13;20.70;99.90
27647;DHT22;42229;51.230;6.240;2022-08-19T07:25:39;20.70;99.90
27647;DHT22;42229;51.230;6.240;2022-08-19T07:28:05;20.80;99.90
27647;DHT22;42229;51.230;6.240;2022-08-19T07:30:36;20.90;99.90
27647;DHT22;42229;51.230;6.240;2022-08-19T07:33:03;20.90;99.90
27647;DHT22;42229;51.230;6.240;2022-08-19T07:35:29;21.00;99.90
27647;DHT22;42229;51.230;6.240;2022-08-19T07:37:58;21.10;99.90
27647;DHT22;42229;51.230;6.240;2022-08-19T07:40:25;21.20;99.90
27647;DHT22;42229;51.230;6.240;2022-08-19T07:42:51;21.30;99.90
27647;DHT22;42229;51.230;6.240;2022-08-19T07:45:17;21.30;99.90
27647;DHT22;42229;51.230;6.240;2022-08-19T07:47:43;21.40;99.90
27647;DHT22;42229;51.230;6.240;2022-08-19T07:50:10;21.50;99.90
27647;DHT22;42229;51.230;6.240;2022-08-19T07:52:37;21.60;99.90
27647;DHT22;42229;51.230;6.240;2022-08-19T07:55:06;21.70;99.90
27647;DHT22;42229;51.230;6.240;2022-08-19T07:57:34;21.90;99.90
27647;DHT22;42229;51.230;6.240;2022-08-19T08:00:00;22.00;99.90
27647;DHT22;42229;51.230;6.240;2022-08-19T08:02:26;22.00;99.90
27647;DHT22;42229;51.230;6.240;2022-08-19T08:04:53;22.10;99.90
27647;DHT22;42229;51.230;6.240;2022-08-19T08:07:38;22.20;99.90
27647;DHT22;42229;51.230;6.240;2022-08-19T08:10:22;22.30;99.90
27647;DHT22;42229;51.230;6.240;2022-08-19T08:12:48;22.30;99.90
27647;DHT22;42229;51.230;6.240;2022-08-19T08:15:15;22.30;99.90
27647;DHT22;42229;51.230;6.240;2022-08-19T08:17:45;22.40;99.90
27647;DHT22;42229;51.230;6.240;2022-08-19T08:20:12;22.40;99.90
27647;DHT22;42229;51.230;6.240;2022-08-19T08:22:42;22.50;99.90
27647;DHT22;42229;51.230;6.240;2022-08-19T08:25:31;22.50;99.90
27647;DHT22;42229;51.230;6.240;2022-08-19T08:27:57;22.50;99.90
27647;DHT22;42229;51.230;6.240;2022-08-19T08:30:30;22.60;99.90
27647;DHT22;42229;51.230;6.240;2022-08-19T08:32:58;22.60;99.90
27647;DHT22;42229;51.230;6.240;2022-08-19T08:35:25;22.60;99.90
27647;DHT22;42229;51.230;6.240;2022-08-19T08:37:52;22.70;99.90
27647;DHT22;42229;51.230;6.240;2022-08-19T08:40:30;22.80;99.90
27647;DHT22;42229;51.230;6.240;2022-08-19T08:43:25;22.80;99.90
27647;DHT22;42229;51.230;6.240;2022-08-19T08:46:04;22.80;99.90
27647;DHT22;42229;51.230;6.240;2022-08-19T08:48:46;22.90;99.90
27647;DHT22;42229;51.230;6.240;2022-08-19T08:51:31;23.00;99.90
27647;DHT22;42229;51.230;6.240;2022-08-19T08:54:02;23.00;99.90
27647;DHT22;42229;51.230;6.240;2022-08-19T08:56:32;23.00;99.90
27647;DHT22;42229;51.230;6.240;2022-08-19T08:59:03;23.00;99.90
27647;DHT22;42229;51.230;6.240;2022-08-19T09:01:33;23.00;99.90
27647;DHT22;42229;51.230;6.240;2022-08-19T09:04:00;23.20;99.90
27647;DHT22;42229;51.230;6.240;2022-08-19T09:09:17;23.20;99.90
27647;DHT22;42229;51.230;6.240;2022-08-19T09:17:07;23.50;99.90
27647;DHT22;42229;51.230;6.240;2022-08-19T09:19:35;23.60;99.90
27647;DHT22;42229;51.230;6.240;2022-08-19T09:22:12;23.70;99.90
27647;DHT22;42229;51.230;6.240;2022-08-19T09:24:38;23.80;99.90
27647;DHT22;42229;51.230;6.240;2022-08-19T09:27:05;23.90;99.90
27647;DHT22;42229;51.230;6.240;2022-08-19T09:29:31;24.00;99.90
27647;DHT22;42229;51.230;6.240;2022-08-19T09:31:58;24.10;99.90
27647;DHT22;42229;51.230;6.240;2022-08-19T09:34:24;24.30;99.90
27647;DHT22;42229;51.230;6.240;2022-08-19T09:36:51;24.40;99.30
27647;DHT22;42229;51.230;6.240;2022-08-19T09:39:18;24.40;98.70
27647;DHT22;42229;51.230;6.240;2022-08-19T09:41:45;24.50;98.80
27647;DHT22;42229;51.230;6.240;2022-08-19T09:44:11;24.50;98.70
27647;DHT22;42229;51.230;6.240;2022-08-19T09:46:38;24.60;99.30
27647;DHT22;42229;51.230;6.240;2022-08-19T09:49:04;24.70;98.50
27647;DHT22;42229;51.230;6.240;2022-08-19T09:51:32;24.70;98.50
27647;DHT22;42229;51.230;6.240;2022-08-19T09:54:00;24.90;98.80
27647;DHT22;42229;51.230;6.240;2022-08-19T09:56:29;25.00;98.70
27647;DHT22;42229;51.230;6.240;2022-08-19T09:58:57;25.10;98.30
27647;DHT22;42229;51.230;6.240;2022-08-19T10:01:26;25.20;98.60
27647;DHT22;42229;51.230;6.240;2022-08-19T10:03:54;25.30;98.30
27647;DHT22;42229;51.230;6.240;2022-08-19T10:06:22;25.30;97.90
27647;DHT22;42229;51.230;6.240;2022-08-19T10:08:55;25.40;97.60
27647;DHT22;42229;51.230;6.240;2022-08-19T10:11:21;25.50;98.10
27647;DHT22;42229;51.230;6.240;2022-08-19T10:13:48;25.50;97.40
27647;DHT22;42229;51.230;6.240;2022-08-19T10:16:18;25.50;97.00
27647;DHT22;42229;51.230;6.240;2022-08-19T10:18:45;25.60;97.30
27647;DHT22;42229;51.230;6.240;2022-08-19T10:21:13;25.60;97.50
27647;DHT22;42229;51.230;6.240;2022-08-19T10:23:45;25.70;96.20
27647;DHT22;42229;51.230;6.240;2022-08-19T10:26:13;25.80;96.60
27647;DHT22;42229;51.230;6.240;2022-08-19T10:28:41;25.90;98.00
27647;DHT22;42229;51.230;6.240;2022-08-19T10:31:09;26.00;96.50
27647;DHT22;42229;51.230;6.240;2022-08-19T10:33:38;26.20;96.20
27647;DHT22;42229;51.230;6.240;2022-08-19T10:36:06;26.20;94.90
27647;DHT22;42229;51.230;6.240;2022-08-19T10:38:35;26.30;95.80
27647;DHT22;42229;51.230;6.240;2022-08-19T10:41:10;26.40;95.80
27647;DHT22;42229;51.230;6.240;2022-08-19T10:43:38;26.50;95.00
27647;DHT22;42229;51.230;6.240;2022-08-19T10:46:06;26.60;94.10
27647;DHT22;42229;51.230;6.240;2022-08-19T10:48:34;26.80;95.40
27647;DHT22;42229;51.230;6.240;2022-08-19T10:51:00;26.80;94.80
27647;DHT22;42229;51.230;6.240;2022-08-19T10:53:45;26.90;94.50
27647;DHT22;42229;51.230;6.240;2022-08-19T10:56:12;26.90;91.60
27647;DHT22;42229;51.230;6.240;2022-08-19T10:58:57;26.90;92.00
27647;DHT22;42229;51.230;6.240;2022-08-19T11:01:24;26.90;93.00
27647;DHT22;42229;51.230;6.240;2022-08-19T11:03:51;26.90;92.10
27647;DHT22;42229;51.230;6.240;2022-08-19T11:06:18;26.90;91.20
27647;DHT22;42229;51.230;6.240;2022-08-19T11:08:46;26.90;91.30
27647;DHT22;42229;51.230;6.240;2022-08-19T11:11:12;26.90;91.70
27647;DHT22;42229;51.230;6.240;2022-08-19T11:13:39;26.90;93.50
27647;DHT22;42229;51.230;6.240;2022-08-19T11:16:09;26.90;91.40
27647;DHT22;42229;51.230;6.240;2022-08-19T11:18:41;26.90;91.10
27647;DHT22;42229;51.230;6.240;2022-08-19T11:21:12;27.00;91.60
27647;DHT22;42229;51.230;6.240;2022-08-19T11:23:43;27.10;91.60
27647;DHT22;42229;51.230;6.240;2022-08-19T11:26:09;27.10;92.60
27647;DHT22;42229;51.230;6.240;2022-08-19T11:28:36;27.20;90.20
27647;DHT22;42229;51.230;6.240;2022-08-19T11:31:02;27.30;90.50
27647;DHT22;42229;51.230;6.240;2022-08-19T11:33:30;27.40;91.80
27647;DHT22;42229;51.230;6.240;2022-08-19T11:35:57;27.50;91.80
27647;DHT22;42229;51.230;6.240;2022-08-19T11:38:25;27.70;90.00
27647;DHT22;42229;51.230;6.240;2022-08-19T11:40:58;27.80;86.90
27647;DHT22;42229;51.230;6.240;2022-08-19T11:43:26;27.80;84.40
27647;DHT22;42229;51.230;6.240;2022-08-19T11:45:54;27.90;84.20
27647;DHT22;42229;51.230;6.240;2022-08-19T11:48:21;28.00;83.40
27647;DHT22;42229;51.230;6.240;2022-08-19T11:50:49;28.10;83.30
27647;DHT22;42229;51.230;6.240;2022-08-19T11:53:16;28.20;76.60
27647;DHT22;42229;51.230;6.240;2022-08-19T11:55:42;28.30;81.20
27647;DHT22;42229;51.230;6.240;2022-08-19T11:58:11;28.50;77.10
27647;DHT22;42229;51.230;6.240;2022-08-19T12:00:38;28.80;80.40
27647;DHT22;42229;51.230;6.240;2022-08-19T12:03:04;29.00;74.40
27647;DHT22;42229;51.230;6.240;2022-08-19T12:05:31;29.30;78.40
27647;DHT22;42229;51.230;6.240;2022-08-19T12:07:57;29.50;78.80
27647;DHT22;42229;51.230;6.240;2022-08-19T12:10:24;29.80;76.10
27647;DHT22;42229;51.230;6.240;2022-08-19T12:12:50;30.00;77.90
27647;DHT22;42229;51.230;6.240;2022-08-19T12:15:16;30.30;74.60
27647;DHT22;42229;51.230;6.240;2022-08-19T12:17:43;30.50;74.20
27647;DHT22;42229;51.230;6.240;2022-08-19T12:20:09;30.70;75.70
27647;DHT22;42229;51.230;6.240;2022-08-19T12:22:37;31.00;70.30
27647;DHT22;42229;51.230;6.240;2022-08-19T12:25:04;31.10;65.90
27647;DHT22;42229;51.230;6.240;2022-08-19T12:27:31;31.10;61.80
27647;DHT22;42229;51.230;6.240;2022-08-19T12:29:57;31.20;71.90
27647;DHT22;42229;51.230;6.240;2022-08-19T12:32:24;31.40;66.00
27647;DHT22;42229;51.230;6.240;2022-08-19T12:34:50;31.50;63.40
27647;DHT22;42229;51.230;6.240;2022-08-19T12:37:16;31.50;62.40
27647;DHT22;42229;51.230;6.240;2022-08-19T12:39:43;31.50;62.90
27647;DHT22;42229;51.230;6.240;2022-08-19T12:42:10;31.40;59.90
27647;DHT22;42229;51.230;6.240;2022-08-19T12:44:38;31.30;59.70
27647;DHT22;42229;51.230;6.240;2022-08-19T12:47:05;31.30;62.40
27647;DHT22;42229;51.230;6.240;2022-08-19T12:49:33;31.30;59.30
27647;DHT22;42229;51.230;6.240;2022-08-19T12:52:00;31.30;59.90
27647;DHT22;42229;51.230;6.240;2022-08-19T12:54:27;31.40;60.40
27647;DHT22;42229;51.230;6.240;2022-08-19T12:56:53;31.40;60.60
27647;DHT22;42229;51.230;6.240;2022-08-19T12:59:19;31.40;59.50
27647;DHT22;42229;51.230;6.240;2022-08-19T13:01:46;31.50;63.90
27647;DHT22;42229;51.230;6.240;2022-08-19T13:04:12;31.60;60.90
27647;DHT22;42229;51.230;6.240;2022-08-19T13:06:38;31.80;56.30
27647;DHT22;42229;51.230;6.240;2022-08-19T13:09:04;32.00;63.10
27647;DHT22;42229;51.230;6.240;2022-08-19T13:11:31;32.10;59.90
27647;DHT22;42229;51.230;6.240;2022-08-19T13:13:59;32.20;59.20
27647;DHT22;42229;51.230;6.240;2022-08-19T13:16:27;32.30;59.80
27647;DHT22;42229;51.230;6.240;2022-08-19T13:18:54;32.40;59.80
27647;DHT22;42229;51.230;6.240;2022-08-19T13:21:22;32.50;59.00
27647;DHT22;42229;51.230;6.240;2022-08-19T13:23:51;32.50;57.60
27647;DHT22;42229;51.230;6.240;2022-08-19T13:26:18;32.60;56.80
27647;DHT22;42229;51.230;6.240;2022-08-19T13:28:45;32.60;57.50
27647;DHT22;42229;51.230;6.240;2022-08-19T13:31:31;32.60;57.00
27647;DHT22;42229;51.230;6.240;2022-08-19T13:34:18;32.70;55.30
27647;DHT22;42229;51.230;6.240;2022-08-19T13:36:46;32.60;55.80
27647;DHT22;42229;51.230;6.240;2022-08-19T13:39:13;32.60;54.80
27647;DHT22;42229;51.230;6.240;2022-08-19T13:41:42;32.60;55.80
27647;DHT22;42229;51.230;6.240;2022-08-19T13:44:17;32.60;57.40
27647;DHT22;42229;51.230;6.240;2022-08-19T13:46:47;32.60;57.00
27647;DHT22;42229;51.230;6.240;2022-08-19T13:49:14;32.70;58.10
27647;DHT22;42229;51.230;6.240;2022-08-19T13:51:41;32.80;57.60
27647;DHT22;42229;51.230;6.240;2022-08-19T13:54:09;32.80;57.20
27647;DHT22;42229;51.230;6.240;2022-08-19T13:56:43;32.70;58.10
27647;DHT22;42229;51.230;6.240;2022-08-19T13:59:11;32.50;57.60
27647;DHT22;42229;51.230;6.240;2022-08-19T14:01:38;32.30;58.90
27647;DHT22;42229;51.230;6.240;2022-08-19T14:04:04;32.10;60.00
27647;DHT22;42229;51.230;6.240;2022-08-19T14:06:32;31.60;60.40
27647;DHT22;42229;51.230;6.240;2022-08-19T14:08:58;31.20;61.50
27647;DHT22;42229;51.230;6.240;2022-08-19T14:11:25;31.00;63.40
27647;DHT22;42229;51.230;6.240;2022-08-19T14:13:52;30.60;65.00
27647;DHT22;42229;51.230;6.240;2022-08-19T14:16:18;30.30;65.60
27647;DHT22;42229;51.230;6.240;2022-08-19T14:18:44;30.10;66.60
27647;DHT22;42229;51.230;6.240;2022-08-19T14:21:15;29.90;67.60
27647;DHT22;42229;51.230;6.240;2022-08-19T14:23:48;29.90;69.20
27647;DHT22;42229;51.230;6.240;2022-08-19T14:26:15;29.80;69.00
27647;DHT22;42229;51.230;6.240;2022-08-19T14:28:43;29.60;69.20
27647;DHT22;42229;51.230;6.240;2022-08-19T14:31:10;29.50;70.20
27647;DHT22;42229;51.230;6.240;2022-08-19T14:33:37;29.40;70.70
27647;DHT22;42229;51.230;6.240;2022-08-19T14:36:04;29.30;72.00
27647;DHT22;42229;51.230;6.240;2022-08-19T14:38:30;29.10;71.80
27647;DHT22;42229;51.230;6.240;2022-08-19T14:41:11;29.10;73.10
27647;DHT22;42229;51.230;6.240;2022-08-19T14:43:43;29.10;73.90
27647;DHT22;42229;51.230;6.240;2022-08-19T14:46:16;29.10;74.40
27647;DHT22;42229;51.230;6.240;2022-08-19T14:48:43;29.10;74.70
27647;DHT22;42229;51.230;6.240;2022-08-19T14:51:10;29.20;74.50
27647;DHT22;42229;51.230;6.240;2022-08-19T14:53:36;29.30;74.50
27647;DHT22;42229;51.230;6.240;2022-08-19T14:56:10;29.30;74.50
27647;DHT22;42229;51.230;6.240;2022-08-19T14:58:39;29.40;74.50
27647;DHT22;42229;51.230;6.240;2022-08-19T15:01:06;29.40;74.80
27647;DHT22;42229;51.230;6.240;2022-08-19T15:03:34;29.40;74.90
27647;DHT22;42229;51.230;6.240;2022-08-19T15:06:01;29.30;75.20
27647;DHT22;42229;51.230;6.240;2022-08-19T15:08:30;29.20;76.40
27647;DHT22;42229;51.230;6.240;2022-08-19T15:10:57;29.10;76.30
27647;DHT22;42229;51.230;6.240;2022-08-19T15:13:24;29.00;76.70
27647;DHT22;42229;51.230;6.240;2022-08-19T15:15:52;28.90;77.10
27647;DHT22;42229;51.230;6.240;2022-08-19T15:18:19;28.90;77.60
27647;DHT22;42229;51.230;6.240;2022-08-19T15:20:46;28.80;78.10
27647;DHT22;42229;51.230;6.240;2022-08-19T15:23:14;28.70;78.70
27647;DHT22;42229;51.230;6.240;2022-08-19T15:25:41;28.70;78.50
27647;DHT22;42229;51.230;6.240;2022-08-19T15:28:09;28.50;79.70
27647;DHT22;42229;51.230;6.240;2022-08-19T15:30:38;28.50;78.60
27647;DHT22;42229;51.230;6.240;2022-08-19T15:33:05;28.40;81.00
27647;DHT22;42229;51.230;6.240;2022-08-19T15:35:32;28.30;81.40
27647;DHT22;42229;51.230;6.240;2022-08-19T15:37:58;28.20;81.80
27647;DHT22;42229;51.230;6.240;2022-08-19T15:40:25;28.10;81.80
27647;DHT22;42229;51.230;6.240;2022-08-19T15:42:52;28.00;82.90
27647;DHT22;42229;51.230;6.240;2022-08-19T15:45:19;28.00;83.30
27647;DHT22;42229;51.230;6.240;2022-08-19T15:47:47;27.90;84.00
27647;DHT22;42229;51.230;6.240;2022-08-19T15:50:15;27.80;84.40